LPOV

Details ICAO LPOV
Name OVAR
Region Portugal
Timezone Europe/Lisbon (UTC+0.0)
Plans Departing 4
Arriving 6
Stats Elevation 56 ft / 17 m (AMSL)
Location 40.915920° -8.645925°
Runways 1
Magnetic Variation 2.306° W
Sunrise 2017-12-17 07:54:52 UTC / 2017-12-17 07:54:52 Local
Sunset 2017-12-17 17:09:18 UTC / 2017-12-17 17:09:18 Local
Advertisement - Login to hide

Runways

ID Width Length Bearing (true) Bearing (mag) Surface Threshold Offset Overrun Length
18 148 ft / 45 m 7,979 ft / 2,432 m 176.15° 178.46° Concrete 0 ft / 0 m 0 ft / 0 m
36 148 ft / 45 m 7,979 ft / 2,432 m 356.15° 358.46° Concrete 0 ft / 0 m 0 ft / 0 m

Map

Weather


0- 5 10 15 20 25 30 35+ Temperature / ° C

Clouds and Precipitation
Forecast for 2017-12-17 12:00 UTC. Updated an hour ago

Ground ~20,000 ft ~40,000 ft Winds

METAR

LPOV 171000Z VRB01KT CAVOK 05/04 Q1032

TAF

Not found

Frequencies

Tower 122.10 MHz TWR
Approach 118.60 MHz APP
Warning: Do not use this data for real-world aviation or navigation. No guarantee of current accuracy is given.